sensor_id;sensor_type;location;lat;lon;timestamp;P1;durP1;ratioP1;P2;durP2;ratioP2
66139;SDS011;52945;51.908;8.364;2023-05-13T00:01:56;6.53;;;4.13;;
66139;SDS011;52945;51.908;8.364;2023-05-13T00:04:57;5.38;;;3.50;;
66139;SDS011;52945;51.908;8.364;2023-05-13T00:07:58;7.60;;;3.90;;
66139;SDS011;52945;51.908;8.364;2023-05-13T00:11:00;4.63;;;3.60;;
66139;SDS011;52945;51.908;8.364;2023-05-13T00:14:01;6.70;;;4.28;;
66139;SDS011;52945;51.908;8.364;2023-05-13T00:17:02;5.40;;;4.28;;
66139;SDS011;52945;51.908;8.364;2023-05-13T00:20:04;7.05;;;4.35;;
66139;SDS011;52945;51.908;8.364;2023-05-13T00:23:06;8.77;;;4.18;;
66139;SDS011;52945;51.908;8.364;2023-05-13T00:26:06;8.93;;;4.35;;
66139;SDS011;52945;51.908;8.364;2023-05-13T00:29:07;5.80;;;4.07;;
66139;SDS011;52945;51.908;8.364;2023-05-13T00:32:08;5.20;;;3.80;;
66139;SDS011;52945;51.908;8.364;2023-05-13T00:35:08;4.80;;;3.65;;
66139;SDS011;52945;51.908;8.364;2023-05-13T00:38:09;8.07;;;4.47;;
66139;SDS011;52945;51.908;8.364;2023-05-13T00:41:10;6.50;;;4.00;;
66139;SDS011;52945;51.908;8.364;2023-05-13T00:44:11;4.90;;;3.58;;
66139;SDS011;52945;51.908;8.364;2023-05-13T00:47:12;6.45;;;3.70;;
66139;SDS011;52945;51.908;8.364;2023-05-13T00:50:13;6.88;;;3.88;;
66139;SDS011;52945;51.908;8.364;2023-05-13T00:56:17;8.43;;;4.03;;
66139;SDS011;52945;51.908;8.364;2023-05-13T00:59:19;7.85;;;4.85;;
66139;SDS011;52945;51.908;8.364;2023-05-13T01:02:29;7.53;;;4.28;;
66139;SDS011;52945;51.908;8.364;2023-05-13T01:05:40;6.60;;;4.65;;
66139;SDS011;52945;51.908;8.364;2023-05-13T01:09:05;6.32;;;4.25;;
66139;SDS011;52945;51.908;8.364;2023-05-13T01:12:07;7.60;;;4.30;;
66139;SDS011;52945;51.908;8.364;2023-05-13T01:18:19;6.85;;;4.65;;
66139;SDS011;52945;51.908;8.364;2023-05-13T01:21:27;5.57;;;3.92;;
66139;SDS011;52945;51.908;8.364;2023-05-13T01:24:28;6.95;;;4.38;;
66139;SDS011;52945;51.908;8.364;2023-05-13T01:27:28;5.35;;;4.00;;
66139;SDS011;52945;51.908;8.364;2023-05-13T01:30:29;5.93;;;4.30;;
66139;SDS011;52945;51.908;8.364;2023-05-13T01:33:30;11.00;;;4.53;;
66139;SDS011;52945;51.908;8.364;2023-05-13T01:39:31;5.55;;;4.30;;
66139;SDS011;52945;51.908;8.364;2023-05-13T01:42:35;6.18;;;4.18;;
66139;SDS011;52945;51.908;8.364;2023-05-13T01:45:36;7.57;;;4.13;;
66139;SDS011;52945;51.908;8.364;2023-05-13T01:48:36;6.07;;;3.65;;
66139;SDS011;52945;51.908;8.364;2023-05-13T01:51:37;5.35;;;3.83;;
66139;SDS011;52945;51.908;8.364;2023-05-13T01:54:37;5.60;;;4.38;;
66139;SDS011;52945;51.908;8.364;2023-05-13T01:57:38;7.13;;;4.10;;
66139;SDS011;52945;51.908;8.364;2023-05-13T02:00:38;5.60;;;4.32;;
66139;SDS011;52945;51.908;8.364;2023-05-13T02:03:39;5.38;;;4.03;;
66139;SDS011;52945;51.908;8.364;2023-05-13T02:06:39;5.28;;;4.15;;
66139;SDS011;52945;51.908;8.364;2023-05-13T02:09:40;5.90;;;3.80;;
66139;SDS011;52945;51.908;8.364;2023-05-13T02:12:41;5.35;;;3.67;;
66139;SDS011;52945;51.908;8.364;2023-05-13T02:15:42;8.73;;;4.07;;
66139;SDS011;52945;51.908;8.364;2023-05-13T02:18:43;5.57;;;4.45;;
66139;SDS011;52945;51.908;8.364;2023-05-13T02:21:44;6.35;;;4.55;;
66139;SDS011;52945;51.908;8.364;2023-05-13T02:24:45;8.45;;;4.45;;
66139;SDS011;52945;51.908;8.364;2023-05-13T02:27:45;6.28;;;4.40;;
66139;SDS011;52945;51.908;8.364;2023-05-13T02:30:46;6.63;;;3.92;;
66139;SDS011;52945;51.908;8.364;2023-05-13T02:33:46;8.02;;;4.35;;
66139;SDS011;52945;51.908;8.364;2023-05-13T02:36:47;6.80;;;4.10;;
66139;SDS011;52945;51.908;8.364;2023-05-13T02:39:47;6.75;;;4.50;;
66139;SDS011;52945;51.908;8.364;2023-05-13T02:42:48;5.47;;;4.20;;
66139;SDS011;52945;51.908;8.364;2023-05-13T02:45:49;6.55;;;4.00;;
66139;SDS011;52945;51.908;8.364;2023-05-13T02:48:49;6.25;;;4.32;;
66139;SDS011;52945;51.908;8.364;2023-05-13T02:51:50;6.30;;;4.63;;
66139;SDS011;52945;51.908;8.364;2023-05-13T02:54:50;6.82;;;4.25;;
66139;SDS011;52945;51.908;8.364;2023-05-13T02:57:51;7.50;;;4.40;;
66139;SDS011;52945;51.908;8.364;2023-05-13T03:00:51;6.80;;;4.50;;
66139;SDS011;52945;51.908;8.364;2023-05-13T03:03:52;6.20;;;3.92;;
66139;SDS011;52945;51.908;8.364;2023-05-13T03:06:52;6.03;;;4.10;;
66139;SDS011;52945;51.908;8.364;2023-05-13T03:09:53;5.88;;;4.13;;
66139;SDS011;52945;51.908;8.364;2023-05-13T03:12:54;6.60;;;4.30;;
66139;SDS011;52945;51.908;8.364;2023-05-13T03:15:55;7.53;;;4.22;;
66139;SDS011;52945;51.908;8.364;2023-05-13T03:18:55;6.13;;;4.47;;
66139;SDS011;52945;51.908;8.364;2023-05-13T03:21:56;9.60;;;4.85;;
66139;SDS011;52945;51.908;8.364;2023-05-13T03:24:56;7.00;;;4.35;;
66139;SDS011;52945;51.908;8.364;2023-05-13T03:27:57;4.82;;;3.95;;
66139;SDS011;52945;51.908;8.364;2023-05-13T03:30:58;7.10;;;4.40;;
66139;SDS011;52945;51.908;8.364;2023-05-13T03:33:59;8.52;;;4.72;;
66139;SDS011;52945;51.908;8.364;2023-05-13T03:36:59;6.22;;;4.47;;
66139;SDS011;52945;51.908;8.364;2023-05-13T03:40:00;9.68;;;4.50;;
66139;SDS011;52945;51.908;8.364;2023-05-13T03:43:00;11.70;;;4.80;;
66139;SDS011;52945;51.908;8.364;2023-05-13T03:46:01;8.82;;;4.63;;
66139;SDS011;52945;51.908;8.364;2023-05-13T03:49:02;6.55;;;4.55;;
66139;SDS011;52945;51.908;8.364;2023-05-13T03:52:02;8.50;;;4.78;;
66139;SDS011;52945;51.908;8.364;2023-05-13T03:55:03;9.90;;;5.70;;
66139;SDS011;52945;51.908;8.364;2023-05-13T03:58:12;8.07;;;5.20;;
66139;SDS011;52945;51.908;8.364;2023-05-13T04:01:13;6.57;;;4.68;;
66139;SDS011;52945;51.908;8.364;2023-05-13T04:04:14;5.63;;;4.25;;
66139;SDS011;52945;51.908;8.364;2023-05-13T04:07:15;9.88;;;4.75;;
66139;SDS011;52945;51.908;8.364;2023-05-13T04:10:15;6.55;;;4.78;;
66139;SDS011;52945;51.908;8.364;2023-05-13T04:13:16;7.35;;;4.70;;
66139;SDS011;52945;51.908;8.364;2023-05-13T04:16:16;6.35;;;4.72;;
66139;SDS011;52945;51.908;8.364;2023-05-13T04:19:17;11.25;;;4.93;;
66139;SDS011;52945;51.908;8.364;2023-05-13T04:22:18;8.45;;;4.72;;
66139;SDS011;52945;51.908;8.364;2023-05-13T04:25:18;9.38;;;4.78;;
66139;SDS011;52945;51.908;8.364;2023-05-13T04:28:19;7.68;;;5.05;;
66139;SDS011;52945;51.908;8.364;2023-05-13T04:31:20;8.63;;;4.65;;
66139;SDS011;52945;51.908;8.364;2023-05-13T04:34:20;6.80;;;4.95;;
66139;SDS011;52945;51.908;8.364;2023-05-13T04:37:21;7.22;;;4.90;;
66139;SDS011;52945;51.908;8.364;2023-05-13T04:40:21;5.82;;;4.55;;
66139;SDS011;52945;51.908;8.364;2023-05-13T04:43:22;8.60;;;5.45;;
66139;SDS011;52945;51.908;8.364;2023-05-13T04:46:23;9.90;;;4.85;;
66139;SDS011;52945;51.908;8.364;2023-05-13T04:49:24;7.55;;;4.80;;
66139;SDS011;52945;51.908;8.364;2023-05-13T04:52:25;7.68;;;5.07;;
66139;SDS011;52945;51.908;8.364;2023-05-13T04:55:26;8.05;;;5.25;;
66139;SDS011;52945;51.908;8.364;2023-05-13T04:58:26;8.45;;;4.47;;
66139;SDS011;52945;51.908;8.364;2023-05-13T05:01:27;7.28;;;4.75;;
66139;SDS011;52945;51.908;8.364;2023-05-13T05:04:28;7.20;;;4.85;;
66139;SDS011;52945;51.908;8.364;2023-05-13T05:07:28;7.40;;;5.60;;
66139;SDS011;52945;51.908;8.364;2023-05-13T05:10:29;8.77;;;4.50;;
66139;SDS011;52945;51.908;8.364;2023-05-13T05:13:29;6.25;;;4.68;;
66139;SDS011;52945;51.908;8.364;2023-05-13T05:16:30;7.65;;;4.55;;
66139;SDS011;52945;51.908;8.364;2023-05-13T05:19:30;7.28;;;4.68;;
66139;SDS011;52945;51.908;8.364;2023-05-13T05:22:31;8.50;;;5.13;;
66139;SDS011;52945;51.908;8.364;2023-05-13T05:25:34;6.20;;;4.05;;
66139;SDS011;52945;51.908;8.364;2023-05-13T05:28:35;6.55;;;4.32;;
66139;SDS011;52945;51.908;8.364;2023-05-13T05:31:37;5.95;;;4.70;;
66139;SDS011;52945;51.908;8.364;2023-05-13T05:34:37;9.35;;;4.85;;
66139;SDS011;52945;51.908;8.364;2023-05-13T05:37:38;6.55;;;4.28;;
66139;SDS011;52945;51.908;8.364;2023-05-13T05:40:39;10.52;;;4.25;;
66139;SDS011;52945;51.908;8.364;2023-05-13T05:43:42;6.65;;;4.43;;
66139;SDS011;52945;51.908;8.364;2023-05-13T05:46:42;8.23;;;3.67;;
66139;SDS011;52945;51.908;8.364;2023-05-13T05:49:43;6.05;;;3.97;;
66139;SDS011;52945;51.908;8.364;2023-05-13T05:52:44;10.02;;;4.28;;
66139;SDS011;52945;51.908;8.364;2023-05-13T05:55:44;10.20;;;4.50;;
66139;SDS011;52945;51.908;8.364;2023-05-13T05:58:45;5.78;;;3.78;;
66139;SDS011;52945;51.908;8.364;2023-05-13T06:01:46;6.45;;;4.00;;
66139;SDS011;52945;51.908;8.364;2023-05-13T06:04:46;6.25;;;3.92;;
66139;SDS011;52945;51.908;8.364;2023-05-13T06:07:47;5.75;;;3.85;;
66139;SDS011;52945;51.908;8.364;2023-05-13T06:10:47;6.13;;;3.72;;
66139;SDS011;52945;51.908;8.364;2023-05-13T06:13:48;5.65;;;4.38;;
66139;SDS011;52945;51.908;8.364;2023-05-13T06:16:50;8.05;;;4.80;;
66139;SDS011;52945;51.908;8.364;2023-05-13T06:19:50;7.53;;;4.50;;
66139;SDS011;52945;51.908;8.364;2023-05-13T06:22:51;6.28;;;4.32;;
66139;SDS011;52945;51.908;8.364;2023-05-13T06:25:51;7.88;;;4.68;;
66139;SDS011;52945;51.908;8.364;2023-05-13T06:28:52;6.70;;;4.30;;
66139;SDS011;52945;51.908;8.364;2023-05-13T06:31:52;6.22;;;4.45;;
66139;SDS011;52945;51.908;8.364;2023-05-13T06:34:53;6.80;;;4.38;;
66139;SDS011;52945;51.908;8.364;2023-05-13T06:37:54;8.52;;;4.53;;
66139;SDS011;52945;51.908;8.364;2023-05-13T06:40:54;7.35;;;4.70;;
66139;SDS011;52945;51.908;8.364;2023-05-13T06:43:55;6.70;;;4.78;;
66139;SDS011;52945;51.908;8.364;2023-05-13T06:46:56;7.53;;;4.72;;
66139;SDS011;52945;51.908;8.364;2023-05-13T06:49:56;7.03;;;5.05;;
66139;SDS011;52945;51.908;8.364;2023-05-13T06:52:57;8.02;;;5.28;;
66139;SDS011;52945;51.908;8.364;2023-05-13T06:55:57;9.32;;;4.95;;
66139;SDS011;52945;51.908;8.364;2023-05-13T06:58:58;9.23;;;4.75;;
66139;SDS011;52945;51.908;8.364;2023-05-13T07:01:59;6.93;;;4.65;;
66139;SDS011;52945;51.908;8.364;2023-05-13T07:04:59;7.20;;;5.38;;
66139;SDS011;52945;51.908;8.364;2023-05-13T07:08:00;7.80;;;4.70;;
66139;SDS011;52945;51.908;8.364;2023-05-13T07:11:05;7.60;;;4.90;;
66139;SDS011;52945;51.908;8.364;2023-05-13T07:14:06;7.43;;;4.97;;
66139;SDS011;52945;51.908;8.364;2023-05-13T07:17:06;10.70;;;4.63;;
66139;SDS011;52945;51.908;8.364;2023-05-13T07:20:07;5.63;;;4.38;;
66139;SDS011;52945;51.908;8.364;2023-05-13T07:23:08;7.38;;;4.43;;
66139;SDS011;52945;51.908;8.364;2023-05-13T07:26:09;5.38;;;3.95;;
66139;SDS011;52945;51.908;8.364;2023-05-13T07:29:10;5.85;;;4.00;;
66139;SDS011;52945;51.908;8.364;2023-05-13T07:32:10;5.45;;;4.05;;
66139;SDS011;52945;51.908;8.364;2023-05-13T07:35:11;6.53;;;4.40;;
66139;SDS011;52945;51.908;8.364;2023-05-13T07:41:12;6.05;;;3.42;;
66139;SDS011;52945;51.908;8.364;2023-05-13T07:44:13;7.28;;;4.07;;
66139;SDS011;52945;51.908;8.364;2023-05-13T07:47:14;4.82;;;3.72;;
66139;SDS011;52945;51.908;8.364;2023-05-13T07:50:14;6.22;;;3.65;;
66139;SDS011;52945;51.908;8.364;2023-05-13T07:53:15;4.82;;;4.00;;
66139;SDS011;52945;51.908;8.364;2023-05-13T07:56:16;6.15;;;4.10;;
66139;SDS011;52945;51.908;8.364;2023-05-13T07:59:17;5.75;;;3.47;;
66139;SDS011;52945;51.908;8.364;2023-05-13T08:02:17;7.22;;;3.85;;
66139;SDS011;52945;51.908;8.364;2023-05-13T08:05:18;7.47;;;3.60;;
66139;SDS011;52945;51.908;8.364;2023-05-13T08:08:19;7.55;;;4.00;;
66139;SDS011;52945;51.908;8.364;2023-05-13T08:11:19;4.35;;;3.38;;
66139;SDS011;52945;51.908;8.364;2023-05-13T08:14:20;7.07;;;3.30;;
66139;SDS011;52945;51.908;8.364;2023-05-13T08:17:21;4.80;;;3.63;;
66139;SDS011;52945;51.908;8.364;2023-05-13T08:20:22;5.85;;;3.50;;
66139;SDS011;52945;51.908;8.364;2023-05-13T08:23:28;6.45;;;3.60;;
66139;SDS011;52945;51.908;8.364;2023-05-13T08:26:28;5.05;;;3.45;;
66139;SDS011;52945;51.908;8.364;2023-05-13T08:29:29;5.00;;;3.78;;
66139;SDS011;52945;51.908;8.364;2023-05-13T08:32:30;6.28;;;3.47;;
66139;SDS011;52945;51.908;8.364;2023-05-13T08:35:30;6.13;;;3.90;;
66139;SDS011;52945;51.908;8.364;2023-05-13T08:41:33;5.65;;;3.45;;
66139;SDS011;52945;51.908;8.364;2023-05-13T08:44:34;4.93;;;3.47;;
66139;SDS011;52945;51.908;8.364;2023-05-13T08:50:39;6.82;;;3.30;;
66139;SDS011;52945;51.908;8.364;2023-05-13T08:53:40;7.28;;;3.58;;
66139;SDS011;52945;51.908;8.364;2023-05-13T08:56:42;5.53;;;3.42;;
66139;SDS011;52945;51.908;8.364;2023-05-13T09:02:44;3.85;;;3.28;;
66139;SDS011;52945;51.908;8.364;2023-05-13T09:05:45;4.45;;;3.25;;
66139;SDS011;52945;51.908;8.364;2023-05-13T09:11:46;5.43;;;3.55;;
66139;SDS011;52945;51.908;8.364;2023-05-13T09:18:00;5.13;;;3.65;;
66139;SDS011;52945;51.908;8.364;2023-05-13T09:21:21;3.50;;;3.05;;
66139;SDS011;52945;51.908;8.364;2023-05-13T09:24:25;3.85;;;3.22;;
66139;SDS011;52945;51.908;8.364;2023-05-13T09:27:36;8.23;;;3.65;;
66139;SDS011;52945;51.908;8.364;2023-05-13T09:30:41;5.93;;;3.45;;
66139;SDS011;52945;51.908;8.364;2023-05-13T09:33:50;4.15;;;3.20;;
66139;SDS011;52945;51.908;8.364;2023-05-13T09:36:55;7.43;;;3.10;;
66139;SDS011;52945;51.908;8.364;2023-05-13T09:39:56;6.35;;;3.42;;
66139;SDS011;52945;51.908;8.364;2023-05-13T09:42:56;5.10;;;3.33;;
66139;SDS011;52945;51.908;8.364;2023-05-13T09:46:01;5.63;;;3.65;;
66139;SDS011;52945;51.908;8.364;2023-05-13T09:49:03;4.95;;;3.30;;
66139;SDS011;52945;51.908;8.364;2023-05-13T09:52:05;7.03;;;3.60;;
66139;SDS011;52945;51.908;8.364;2023-05-13T09:55:10;5.35;;;3.40;;
66139;SDS011;52945;51.908;8.364;2023-05-13T09:58:10;3.75;;;2.80;;
66139;SDS011;52945;51.908;8.364;2023-05-13T10:01:11;4.07;;;3.00;;
66139;SDS011;52945;51.908;8.364;2023-05-13T10:04:12;4.03;;;2.97;;
66139;SDS011;52945;51.908;8.364;2023-05-13T10:07:13;4.88;;;2.88;;
66139;SDS011;52945;51.908;8.364;2023-05-13T10:10:13;4.03;;;3.08;;
66139;SDS011;52945;51.908;8.364;2023-05-13T10:13:15;5.47;;;3.28;;
66139;SDS011;52945;51.908;8.364;2023-05-13T10:16:17;5.22;;;3.38;;
66139;SDS011;52945;51.908;8.364;2023-05-13T10:19:18;5.30;;;3.03;;
66139;SDS011;52945;51.908;8.364;2023-05-13T10:25:28;4.45;;;2.78;;
66139;SDS011;52945;51.908;8.364;2023-05-13T10:28:29;5.03;;;3.17;;
66139;SDS011;52945;51.908;8.364;2023-05-13T10:31:31;7.22;;;3.15;;
66139;SDS011;52945;51.908;8.364;2023-05-13T10:34:33;4.53;;;3.25;;
66139;SDS011;52945;51.908;8.364;2023-05-13T10:44:21;5.10;;;3.20;;
66139;SDS011;52945;51.908;8.364;2023-05-13T10:47:23;4.20;;;2.85;;
66139;SDS011;52945;51.908;8.364;2023-05-13T10:50:24;6.20;;;3.03;;
66139;SDS011;52945;51.908;8.364;2023-05-13T10:53:29;4.55;;;2.75;;
66139;SDS011;52945;51.908;8.364;2023-05-13T10:56:31;4.70;;;3.03;;
66139;SDS011;52945;51.908;8.364;2023-05-13T10:59:31;3.40;;;3.10;;
66139;SDS011;52945;51.908;8.364;2023-05-13T11:02:35;3.88;;;2.60;;
66139;SDS011;52945;51.908;8.364;2023-05-13T11:05:43;3.13;;;2.83;;
66139;SDS011;52945;51.908;8.364;2023-05-13T11:09:36;3.80;;;2.92;;
66139;SDS011;52945;51.908;8.364;2023-05-13T11:12:36;4.43;;;2.95;;
66139;SDS011;52945;51.908;8.364;2023-05-13T11:15:43;6.30;;;3.08;;
66139;SDS011;52945;51.908;8.364;2023-05-13T11:18:49;3.88;;;2.95;;
66139;SDS011;52945;51.908;8.364;2023-05-13T11:21:52;4.50;;;3.22;;
66139;SDS011;52945;51.908;8.364;2023-05-13T11:25:06;4.82;;;3.20;;
66139;SDS011;52945;51.908;8.364;2023-05-13T11:28:08;4.40;;;2.70;;
66139;SDS011;52945;51.908;8.364;2023-05-13T11:31:16;4.00;;;2.85;;
66139;SDS011;52945;51.908;8.364;2023-05-13T11:34:17;5.38;;;3.13;;
66139;SDS011;52945;51.908;8.364;2023-05-13T11:37:18;4.45;;;2.92;;
66139;SDS011;52945;51.908;8.364;2023-05-13T11:40:23;3.38;;;2.90;;
66139;SDS011;52945;51.908;8.364;2023-05-13T11:43:25;5.43;;;3.03;;
66139;SDS011;52945;51.908;8.364;2023-05-13T11:46:26;4.57;;;3.30;;
66139;SDS011;52945;51.908;8.364;2023-05-13T11:49:34;4.07;;;3.30;;
66139;SDS011;52945;51.908;8.364;2023-05-13T11:52:39;3.88;;;3.03;;
66139;SDS011;52945;51.908;8.364;2023-05-13T11:55:40;4.03;;;2.97;;
66139;SDS011;52945;51.908;8.364;2023-05-13T11:58:41;4.05;;;2.90;;
66139;SDS011;52945;51.908;8.364;2023-05-13T12:01:42;3.60;;;3.00;;
66139;SDS011;52945;51.908;8.364;2023-05-13T12:04:43;6.10;;;3.17;;
66139;SDS011;52945;51.908;8.364;2023-05-13T12:07:44;5.18;;;3.05;;
66139;SDS011;52945;51.908;8.364;2023-05-13T12:10:45;5.18;;;3.30;;
66139;SDS011;52945;51.908;8.364;2023-05-13T12:13:45;7.72;;;3.15;;
66139;SDS011;52945;51.908;8.364;2023-05-13T12:16:46;7.78;;;4.20;;
66139;SDS011;52945;51.908;8.364;2023-05-13T12:20:06;6.40;;;4.13;;
66139;SDS011;52945;51.908;8.364;2023-05-13T12:23:08;5.22;;;3.78;;
66139;SDS011;52945;51.908;8.364;2023-05-13T12:26:10;3.88;;;2.90;;
66139;SDS011;52945;51.908;8.364;2023-05-13T12:29:11;5.03;;;3.80;;
66139;SDS011;52945;51.908;8.364;2023-05-13T12:32:12;5.45;;;4.20;;
66139;SDS011;52945;51.908;8.364;2023-05-13T12:35:15;5.60;;;3.67;;
66139;SDS011;52945;51.908;8.364;2023-05-13T12:38:17;5.05;;;3.25;;
66139;SDS011;52945;51.908;8.364;2023-05-13T12:41:19;3.70;;;2.92;;
66139;SDS011;52945;51.908;8.364;2023-05-13T12:44:21;3.65;;;3.00;;
66139;SDS011;52945;51.908;8.364;2023-05-13T12:47:22;4.30;;;2.80;;
66139;SDS011;52945;51.908;8.364;2023-05-13T12:50:22;4.00;;;2.83;;
66139;SDS011;52945;51.908;8.364;2023-05-13T12:53:24;3.08;;;2.70;;
66139;SDS011;52945;51.908;8.364;2023-05-13T12:56:24;5.32;;;2.95;;
66139;SDS011;52945;51.908;8.364;2023-05-13T12:59:25;3.45;;;3.05;;
66139;SDS011;52945;51.908;8.364;2023-05-13T13:02:28;3.97;;;2.90;;
66139;SDS011;52945;51.908;8.364;2023-05-13T13:05:28;3.15;;;2.85;;
66139;SDS011;52945;51.908;8.364;2023-05-13T13:08:30;4.47;;;3.00;;
66139;SDS011;52945;51.908;8.364;2023-05-13T13:11:31;3.03;;;2.70;;
66139;SDS011;52945;51.908;8.364;2023-05-13T13:14:32;2.72;;;2.40;;
66139;SDS011;52945;51.908;8.364;2023-05-13T13:17:32;5.55;;;3.15;;
66139;SDS011;52945;51.908;8.364;2023-05-13T13:20:33;7.97;;;3.17;;
66139;SDS011;52945;51.908;8.364;2023-05-13T13:23:33;4.10;;;2.70;;
66139;SDS011;52945;51.908;8.364;2023-05-13T13:26:34;3.30;;;2.42;;
66139;SDS011;52945;51.908;8.364;2023-05-13T13:29:35;4.28;;;2.88;;
66139;SDS011;52945;51.908;8.364;2023-05-13T13:32:35;5.85;;;2.75;;
66139;SDS011;52945;51.908;8.364;2023-05-13T13:35:36;6.22;;;2.83;;
66139;SDS011;52945;51.908;8.364;2023-05-13T13:38:36;4.45;;;2.67;;
66139;SDS011;52945;51.908;8.364;2023-05-13T13:41:37;4.20;;;2.70;;
66139;SDS011;52945;51.908;8.364;2023-05-13T13:44:37;4.63;;;2.90;;
66139;SDS011;52945;51.908;8.364;2023-05-13T13:47:38;4.38;;;2.65;;
66139;SDS011;52945;51.908;8.364;2023-05-13T13:50:39;3.55;;;2.58;;
66139;SDS011;52945;51.908;8.364;2023-05-13T13:53:40;3.30;;;2.40;;
66139;SDS011;52945;51.908;8.364;2023-05-13T13:56:41;4.35;;;2.55;;
66139;SDS011;52945;51.908;8.364;2023-05-13T13:59:42;3.47;;;2.80;;
66139;SDS011;52945;51.908;8.364;2023-05-13T14:02:42;5.45;;;3.40;;
66139;SDS011;52945;51.908;8.364;2023-05-13T14:05:43;3.92;;;2.75;;
66139;SDS011;52945;51.908;8.364;2023-05-13T14:08:44;4.10;;;2.38;;
66139;SDS011;52945;51.908;8.364;2023-05-13T14:11:44;3.45;;;2.70;;
66139;SDS011;52945;51.908;8.364;2023-05-13T14:14:45;5.53;;;2.95;;
66139;SDS011;52945;51.908;8.364;2023-05-13T14:17:46;4.05;;;2.60;;
66139;SDS011;52945;51.908;8.364;2023-05-13T14:20:46;3.83;;;2.38;;
66139;SDS011;52945;51.908;8.364;2023-05-13T14:23:49;4.38;;;2.97;;
66139;SDS011;52945;51.908;8.364;2023-05-13T14:26:49;6.75;;;3.33;;
66139;SDS011;52945;51.908;8.364;2023-05-13T14:29:50;5.72;;;4.07;;
66139;SDS011;52945;51.908;8.364;2023-05-13T14:32:51;7.68;;;4.22;;
66139;SDS011;52945;51.908;8.364;2023-05-13T14:35:51;5.57;;;3.40;;
66139;SDS011;52945;51.908;8.364;2023-05-13T14:38:52;6.10;;;3.20;;
66139;SDS011;52945;51.908;8.364;2023-05-13T14:41:53;4.70;;;2.92;;
66139;SDS011;52945;51.908;8.364;2023-05-13T14:44:53;4.65;;;3.20;;
66139;SDS011;52945;51.908;8.364;2023-05-13T14:47:54;5.50;;;2.60;;
66139;SDS011;52945;51.908;8.364;2023-05-13T14:50:54;5.47;;;2.97;;
66139;SDS011;52945;51.908;8.364;2023-05-13T14:53:55;4.20;;;2.70;;
66139;SDS011;52945;51.908;8.364;2023-05-13T14:56:56;5.18;;;3.13;;
66139;SDS011;52945;51.908;8.364;2023-05-13T14:59:56;4.80;;;2.97;;
66139;SDS011;52945;51.908;8.364;2023-05-13T15:02:57;4.47;;;2.97;;
66139;SDS011;52945;51.908;8.364;2023-05-13T15:05:57;5.10;;;2.95;;
66139;SDS011;52945;51.908;8.364;2023-05-13T15:08:58;3.72;;;2.92;;
66139;SDS011;52945;51.908;8.364;2023-05-13T15:11:59;4.63;;;2.78;;
66139;SDS011;52945;51.908;8.364;2023-05-13T15:14:59;3.63;;;2.67;;
66139;SDS011;52945;51.908;8.364;2023-05-13T15:18:00;2.50;;;2.30;;
66139;SDS011;52945;51.908;8.364;2023-05-13T15:21:01;3.05;;;2.42;;
66139;SDS011;52945;51.908;8.364;2023-05-13T15:24:01;3.35;;;2.47;;
66139;SDS011;52945;51.908;8.364;2023-05-13T15:27:02;2.90;;;2.58;;
66139;SDS011;52945;51.908;8.364;2023-05-13T15:30:03;3.45;;;2.50;;
66139;SDS011;52945;51.908;8.364;2023-05-13T15:33:04;4.88;;;2.67;;
66139;SDS011;52945;51.908;8.364;2023-05-13T15:36:05;3.45;;;2.58;;
66139;SDS011;52945;51.908;8.364;2023-05-13T15:39:06;3.63;;;2.50;;
66139;SDS011;52945;51.908;8.364;2023-05-13T15:42:06;3.22;;;2.25;;
66139;SDS011;52945;51.908;8.364;2023-05-13T15:45:07;5.45;;;2.83;;
66139;SDS011;52945;51.908;8.364;2023-05-13T15:48:08;4.10;;;2.80;;
66139;SDS011;52945;51.908;8.364;2023-05-13T15:51:08;5.10;;;2.42;;
66139;SDS011;52945;51.908;8.364;2023-05-13T15:54:09;3.22;;;2.28;;
66139;SDS011;52945;51.908;8.364;2023-05-13T15:57:10;2.55;;;2.35;;
66139;SDS011;52945;51.908;8.364;2023-05-13T16:00:10;5.40;;;2.13;;
66139;SDS011;52945;51.908;8.364;2023-05-13T16:03:12;4.22;;;2.70;;
66139;SDS011;52945;51.908;8.364;2023-05-13T16:06:12;3.67;;;2.83;;
66139;SDS011;52945;51.908;8.364;2023-05-13T16:09:13;4.50;;;2.38;;
66139;SDS011;52945;51.908;8.364;2023-05-13T16:12:14;2.42;;;1.83;;
66139;SDS011;52945;51.908;8.364;2023-05-13T16:15:14;4.07;;;2.60;;
66139;SDS011;52945;51.908;8.364;2023-05-13T16:18:15;4.45;;;2.40;;
66139;SDS011;52945;51.908;8.364;2023-05-13T16:21:16;5.35;;;2.65;;
66139;SDS011;52945;51.908;8.364;2023-05-13T16:24:16;4.25;;;2.50;;
66139;SDS011;52945;51.908;8.364;2023-05-13T16:27:17;3.28;;;2.50;;
66139;SDS011;52945;51.908;8.364;2023-05-13T16:30:17;3.78;;;2.53;;
66139;SDS011;52945;51.908;8.364;2023-05-13T16:33:18;3.72;;;2.47;;
66139;SDS011;52945;51.908;8.364;2023-05-13T16:36:18;4.30;;;2.72;;
66139;SDS011;52945;51.908;8.364;2023-05-13T16:39:19;4.70;;;3.10;;
66139;SDS011;52945;51.908;8.364;2023-05-13T16:42:20;4.00;;;2.33;;
66139;SDS011;52945;51.908;8.364;2023-05-13T16:45:20;3.30;;;2.40;;
66139;SDS011;52945;51.908;8.364;2023-05-13T16:48:21;3.78;;;2.97;;
66139;SDS011;52945;51.908;8.364;2023-05-13T16:51:21;4.72;;;3.08;;
66139;SDS011;52945;51.908;8.364;2023-05-13T16:54:22;3.47;;;2.50;;
66139;SDS011;52945;51.908;8.364;2023-05-13T16:57:22;5.45;;;3.35;;
66139;SDS011;52945;51.908;8.364;2023-05-13T17:00:23;4.38;;;2.70;;
66139;SDS011;52945;51.908;8.364;2023-05-13T17:03:24;3.40;;;2.60;;
66139;SDS011;52945;51.908;8.364;2023-05-13T17:06:24;3.55;;;2.78;;
66139;SDS011;52945;51.908;8.364;2023-05-13T17:09:25;4.43;;;2.25;;
66139;SDS011;52945;51.908;8.364;2023-05-13T17:12:27;3.60;;;2.72;;
66139;SDS011;52945;51.908;8.364;2023-05-13T17:15:27;4.15;;;2.58;;
66139;SDS011;52945;51.908;8.364;2023-05-13T17:18:28;5.05;;;2.78;;
66139;SDS011;52945;51.908;8.364;2023-05-13T17:21:29;2.97;;;2.67;;
66139;SDS011;52945;51.908;8.364;2023-05-13T17:24:29;3.10;;;2.70;;
66139;SDS011;52945;51.908;8.364;2023-05-13T17:27:30;3.30;;;2.45;;
66139;SDS011;52945;51.908;8.364;2023-05-13T17:30:31;3.67;;;2.70;;
66139;SDS011;52945;51.908;8.364;2023-05-13T17:33:32;3.03;;;2.60;;
66139;SDS011;52945;51.908;8.364;2023-05-13T17:36:32;3.47;;;2.22;;
66139;SDS011;52945;51.908;8.364;2023-05-13T17:39:33;5.95;;;2.50;;
66139;SDS011;52945;51.908;8.364;2023-05-13T17:42:33;5.20;;;2.45;;
66139;SDS011;52945;51.908;8.364;2023-05-13T17:45:34;4.07;;;2.30;;
66139;SDS011;52945;51.908;8.364;2023-05-13T17:48:35;7.32;;;2.67;;
66139;SDS011;52945;51.908;8.364;2023-05-13T17:51:35;3.00;;;2.42;;
66139;SDS011;52945;51.908;8.364;2023-05-13T17:54:36;4.28;;;2.65;;
66139;SDS011;52945;51.908;8.364;2023-05-13T17:57:36;4.03;;;2.60;;
66139;SDS011;52945;51.908;8.364;2023-05-13T18:00:37;2.92;;;2.50;;
66139;SDS011;52945;51.908;8.364;2023-05-13T18:03:38;3.35;;;2.55;;
66139;SDS011;52945;51.908;8.364;2023-05-13T18:06:38;2.80;;;2.17;;
66139;SDS011;52945;51.908;8.364;2023-05-13T18:09:39;3.50;;;2.53;;
66139;SDS011;52945;51.908;8.364;2023-05-13T18:12:39;5.45;;;2.50;;
66139;SDS011;52945;51.908;8.364;2023-05-13T18:15:40;3.50;;;2.50;;
66139;SDS011;52945;51.908;8.364;2023-05-13T18:18:41;3.60;;;2.60;;
66139;SDS011;52945;51.908;8.364;2023-05-13T18:21:41;3.85;;;2.45;;
66139;SDS011;52945;51.908;8.364;2023-05-13T18:24:42;3.38;;;2.38;;
66139;SDS011;52945;51.908;8.364;2023-05-13T18:27:42;4.43;;;2.50;;
66139;SDS011;52945;51.908;8.364;2023-05-13T18:30:43;2.97;;;2.28;;
66139;SDS011;52945;51.908;8.364;2023-05-13T18:33:43;3.20;;;2.50;;
66139;SDS011;52945;51.908;8.364;2023-05-13T18:36:44;3.38;;;2.65;;
66139;SDS011;52945;51.908;8.364;2023-05-13T18:39:45;3.83;;;2.67;;
66139;SDS011;52945;51.908;8.364;2023-05-13T18:42:45;3.97;;;2.53;;
66139;SDS011;52945;51.908;8.364;2023-05-13T18:45:46;3.75;;;2.72;;
66139;SDS011;52945;51.908;8.364;2023-05-13T18:48:46;4.93;;;3.17;;
66139;SDS011;52945;51.908;8.364;2023-05-13T18:51:47;3.15;;;2.50;;